createdAt,value
2022-11-26T00:01:20.907Z,6.20
2022-11-26T00:03:53.626Z,3.90
2022-11-26T00:06:42.617Z,6.10
2022-11-26T00:09:19.411Z,8.33
2022-11-26T00:11:47.750Z,7.03
2022-11-26T00:14:16.488Z,7.43
2022-11-26T00:16:45.016Z,7.70
2022-11-26T00:19:13.408Z,5.63
2022-11-26T00:21:41.726Z,5.50
2022-11-26T00:24:37.766Z,6.07
2022-11-26T00:27:06.270Z,7.03
2022-11-26T00:29:34.611Z,6.00
2022-11-26T00:32:02.983Z,7.60
2022-11-26T00:34:31.540Z,7.23
2022-11-26T00:37:00.204Z,6.70
2022-11-26T00:39:28.962Z,6.50
2022-11-26T00:41:57.508Z,6.23
2022-11-26T00:44:26.649Z,6.33
2022-11-26T00:46:55.504Z,6.23
2022-11-26T00:49:24.451Z,4.57
2022-11-26T00:51:53.845Z,4.43
2022-11-26T00:54:23.598Z,4.00
2022-11-26T00:56:52.490Z,3.80
2022-11-26T00:59:22.248Z,4.27
2022-11-26T01:01:50.731Z,3.53
2022-11-26T01:04:19.137Z,3.80
2022-11-26T01:06:47.465Z,4.87
2022-11-26T01:09:20.372Z,4.07
2022-11-26T01:11:53.496Z,4.07
2022-11-26T01:14:23.364Z,3.83
2022-11-26T01:16:51.850Z,4.17
2022-11-26T01:19:20.245Z,4.33
2022-11-26T01:21:48.530Z,4.30
2022-11-26T01:24:16.850Z,4.80
2022-11-26T01:26:45.528Z,5.40
2022-11-26T01:29:16.472Z,4.50
2022-11-26T01:31:45.080Z,4.57
2022-11-26T01:34:14.644Z,4.10
2022-11-26T01:36:43.195Z,3.57
2022-11-26T01:39:16.562Z,5.40
2022-11-26T01:41:48.587Z,3.83
2022-11-26T01:44:20.686Z,4.03
2022-11-26T01:46:49.276Z,5.70
2022-11-26T01:49:24.783Z,4.17
2022-11-26T01:52:03.422Z,4.53
2022-11-26T01:54:31.946Z,5.13
2022-11-26T01:57:13.259Z,5.00
2022-11-26T01:59:42.738Z,3.87
2022-11-26T02:02:11.135Z,3.23
2022-11-26T02:04:41.789Z,4.07
2022-11-26T02:07:10.175Z,3.23
2022-11-26T02:09:38.401Z,4.03
2022-11-26T02:12:06.736Z,3.70
2022-11-26T02:14:37.341Z,2.97
2022-11-26T02:17:19.455Z,3.73
2022-11-26T02:19:56.675Z,3.53
2022-11-26T02:22:43.131Z,2.77
2022-11-26T02:25:20.399Z,4.50
2022-11-26T02:28:18.993Z,3.63
2022-11-26T02:30:50.146Z,3.30
2022-11-26T02:33:32.850Z,3.37
2022-11-26T02:36:13.524Z,4.07
2022-11-26T02:38:41.880Z,3.40
2022-11-26T02:41:10.111Z,4.33
2022-11-26T02:43:38.451Z,5.40
2022-11-26T02:46:10.708Z,4.50
2022-11-26T02:48:41.700Z,3.93
2022-11-26T02:51:16.528Z,3.13
2022-11-26T02:53:46.795Z,4.03
2022-11-26T02:56:21.073Z,2.77
2022-11-26T02:58:50.301Z,2.37
2022-11-26T03:01:32.012Z,5.30
2022-11-26T03:04:03.484Z,4.30
2022-11-26T03:06:32.747Z,5.00
2022-11-26T03:09:01.117Z,6.80
2022-11-26T03:11:29.455Z,5.83
2022-11-26T03:13:57.845Z,6.70
2022-11-26T03:16:26.650Z,4.20
2022-11-26T03:18:55.090Z,3.07
2022-11-26T03:21:23.287Z,3.03
2022-11-26T03:23:51.583Z,3.33
2022-11-26T03:26:20.640Z,3.23
2022-11-26T03:28:49.050Z,3.20
2022-11-26T03:31:17.494Z,3.50
2022-11-26T03:33:46.381Z,2.83
2022-11-26T03:36:14.567Z,4.77
2022-11-26T03:38:42.928Z,4.97
2022-11-26T03:41:11.777Z,5.03
2022-11-26T03:43:40.141Z,4.40
2022-11-26T03:46:09.109Z,5.17
2022-11-26T03:48:37.469Z,4.83
2022-11-26T03:51:05.874Z,4.97
2022-11-26T03:53:34.105Z,4.37
2022-11-26T03:56:02.939Z,3.97
2022-11-26T03:58:31.243Z,3.97
2022-11-26T04:00:59.536Z,4.90
2022-11-26T04:03:27.975Z,4.87
2022-11-26T04:05:56.449Z,5.00
2022-11-26T04:08:24.707Z,4.13
2022-11-26T04:10:53.010Z,3.53
2022-11-26T04:13:21.278Z,4.60
2022-11-26T04:15:49.649Z,4.30
2022-11-26T04:18:17.964Z,4.40
2022-11-26T04:20:50.091Z,5.00
2022-11-26T04:23:21.585Z,3.80
2022-11-26T04:25:49.866Z,4.27
2022-11-26T04:28:18.142Z,4.43
2022-11-26T04:30:46.440Z,4.57
2022-11-26T04:33:14.768Z,5.77
2022-11-26T04:35:43.166Z,5.93
2022-11-26T04:38:11.442Z,5.83
2022-11-26T04:40:39.718Z,3.87
2022-11-26T04:43:08.010Z,3.80
2022-11-26T04:45:36.386Z,3.73
2022-11-26T04:48:05.431Z,3.47
2022-11-26T04:50:33.715Z,3.63
2022-11-26T04:53:02.723Z,2.50
2022-11-26T04:55:31.010Z,3.10
2022-11-26T04:57:59.566Z,2.97
2022-11-26T05:00:27.960Z,2.37
2022-11-26T05:02:56.302Z,2.90
2022-11-26T05:05:24.721Z,3.27
2022-11-26T05:07:53.035Z,2.27
2022-11-26T05:10:21.381Z,2.10
2022-11-26T05:12:49.690Z,2.50
2022-11-26T05:15:18.126Z,2.40
2022-11-26T05:17:46.409Z,2.63
2022-11-26T05:20:15.302Z,2.40
2022-11-26T05:22:43.624Z,3.00
2022-11-26T05:25:12.001Z,2.40
2022-11-26T05:27:40.281Z,2.90
2022-11-26T05:30:09.210Z,3.10
2022-11-26T05:32:37.566Z,2.70
2022-11-26T05:35:06.130Z,3.13
2022-11-26T05:37:34.695Z,2.53
2022-11-26T05:40:03.102Z,2.50
2022-11-26T05:42:31.499Z,2.10
2022-11-26T05:44:59.861Z,2.87
2022-11-26T05:47:28.200Z,3.67
2022-11-26T05:49:56.566Z,3.07
2022-11-26T05:52:25.081Z,4.43
2022-11-26T05:54:53.397Z,4.70
2022-11-26T05:57:22.041Z,7.53
2022-11-26T05:59:50.410Z,10.43
2022-11-26T06:02:19.603Z,9.80
2022-11-26T06:04:48.011Z,10.73
2022-11-26T06:07:16.379Z,7.40
2022-11-26T06:09:44.677Z,5.57
2022-11-26T06:12:13.057Z,5.23
2022-11-26T06:14:43.375Z,7.37
2022-11-26T06:17:12.121Z,9.03
2022-11-26T06:19:40.605Z,7.90
2022-11-26T06:22:09.512Z,8.60
2022-11-26T06:24:38.086Z,8.20
2022-11-26T06:27:06.525Z,9.80
2022-11-26T06:29:35.045Z,9.87
2022-11-26T06:32:03.440Z,9.63
2022-11-26T06:34:31.784Z,8.57
2022-11-26T06:37:00.126Z,10.33
2022-11-26T06:39:28.688Z,9.87
2022-11-26T06:41:57.020Z,10.90
2022-11-26T06:44:25.359Z,10.00
2022-11-26T06:46:53.642Z,9.57
2022-11-26T06:49:21.951Z,10.57
2022-11-26T06:51:50.241Z,11.53
2022-11-26T06:54:18.562Z,13.23
2022-11-26T06:56:47.126Z,12.97
2022-11-26T06:59:15.910Z,11.30
2022-11-26T07:01:44.264Z,13.23
2022-11-26T07:04:13.710Z,16.73
2022-11-26T07:06:43.157Z,18.47
2022-11-26T07:09:12.030Z,15.47
2022-11-26T07:11:40.621Z,13.97
2022-11-26T07:14:09.135Z,15.27
2022-11-26T07:16:37.536Z,11.93
2022-11-26T07:19:05.941Z,9.63
2022-11-26T07:21:34.295Z,11.63
2022-11-26T07:24:02.588Z,11.53
2022-11-26T07:26:31.045Z,12.57
2022-11-26T07:28:59.309Z,10.17
2022-11-26T07:31:27.828Z,11.23
2022-11-26T07:33:57.146Z,10.00
2022-11-26T07:36:27.254Z,12.13
2022-11-26T07:38:59.247Z,15.20
2022-11-26T07:41:28.187Z,13.90
2022-11-26T07:43:56.605Z,13.70
2022-11-26T07:46:25.759Z,13.60
2022-11-26T07:48:55.431Z,14.90
2022-11-26T07:51:28.612Z,17.87
2022-11-26T07:53:58.738Z,17.83
2022-11-26T07:56:27.378Z,11.77
2022-11-26T07:58:56.740Z,11.33
2022-11-26T08:01:32.249Z,11.93
2022-11-26T08:04:01.112Z,12.13
2022-11-26T08:06:30.101Z,11.37
2022-11-26T08:09:02.668Z,12.70
2022-11-26T08:11:32.259Z,10.17
2022-11-26T08:14:11.425Z,10.00
2022-11-26T08:16:40.074Z,9.40
2022-11-26T08:19:11.537Z,8.07
2022-11-26T08:21:41.607Z,8.30
2022-11-26T08:24:14.740Z,6.90
2022-11-26T08:26:44.516Z,5.77
2022-11-26T08:29:14.024Z,6.43
2022-11-26T08:31:46.148Z,6.43
2022-11-26T08:34:15.703Z,6.73
2022-11-26T08:36:44.456Z,5.68
2022-11-26T08:39:14.597Z,5.78
2022-11-26T08:41:46.086Z,4.88
2022-11-26T08:44:17.324Z,4.93
2022-11-26T08:46:45.774Z,5.28
2022-11-26T08:49:15.189Z,5.32
2022-11-26T08:51:44.450Z,6.43
2022-11-26T08:54:13.066Z,5.72
2022-11-26T08:56:41.401Z,5.63
2022-11-26T08:59:09.751Z,6.00
2022-11-26T09:01:38.358Z,5.20
2022-11-26T09:04:07.222Z,5.30
2022-11-26T09:06:37.347Z,5.38
2022-11-26T09:09:15.436Z,5.00
2022-11-26T09:11:57.729Z,5.70
2022-11-26T09:14:28.047Z,5.18
2022-11-26T09:16:59.789Z,4.85
2022-11-26T09:19:28.773Z,4.10
2022-11-26T09:21:57.262Z,4.05
2022-11-26T09:24:26.049Z,4.05
2022-11-26T09:26:54.553Z,4.13
2022-11-26T09:29:23.679Z,4.53
2022-11-26T09:34:42.855Z,5.27
2022-11-26T09:37:11.451Z,5.97
2022-11-26T09:39:40.414Z,4.33
2022-11-26T09:42:13.531Z,10.30
2022-11-26T09:45:12.105Z,11.70
2022-11-26T09:47:42.224Z,5.47
2022-11-26T09:50:17.959Z,5.27
2022-11-26T09:53:01.377Z,3.97
2022-11-26T09:55:37.302Z,5.60
2022-11-26T09:58:27.429Z,6.00
2022-11-26T10:00:57.793Z,4.13
2022-11-26T10:03:32.520Z,4.43
2022-11-26T10:06:34.519Z,4.63
2022-11-26T10:09:08.970Z,3.33
2022-11-26T10:11:48.290Z,4.17
2022-11-26T10:14:41.679Z,4.67
2022-11-26T10:17:35.168Z,3.90
2022-11-26T10:20:16.515Z,3.70
2022-11-26T10:22:59.539Z,4.37
2022-11-26T10:25:29.991Z,6.03
2022-11-26T10:28:00.280Z,5.60
2022-11-26T10:30:29.632Z,4.57
2022-11-26T10:32:59.083Z,4.30
2022-11-26T10:35:29.365Z,4.27
2022-11-26T10:37:58.005Z,5.00
2022-11-26T10:40:30.522Z,5.07
2022-11-26T10:43:03.095Z,4.20
2022-11-26T10:45:42.573Z,30.30
2022-11-26T10:48:17.147Z,10.57
2022-11-26T10:51:06.712Z,5.90
2022-11-26T10:53:47.473Z,5.67
2022-11-26T10:56:19.399Z,4.70
2022-11-26T10:58:48.217Z,4.67
2022-11-26T11:01:16.716Z,5.10
2022-11-26T11:04:07.816Z,4.80
2022-11-26T11:06:44.725Z,3.47
2022-11-26T11:09:36.146Z,3.27
2022-11-26T11:12:19.264Z,30.77
2022-11-26T11:14:48.305Z,26.47
2022-11-26T11:17:31.663Z,6.30
2022-11-26T11:20:23.814Z,4.03
2022-11-26T11:23:06.269Z,2.23
2022-11-26T11:25:35.726Z,2.57
2022-11-26T11:28:18.995Z,1.90
2022-11-26T11:30:48.364Z,1.80
2022-11-26T11:33:26.877Z,1.80
2022-11-26T11:36:06.393Z,2.63
2022-11-26T11:38:49.575Z,1.60
2022-11-26T11:41:31.535Z,3.23
2022-11-26T11:44:07.874Z,3.93
2022-11-26T11:47:16.064Z,3.73
2022-11-26T11:50:03.289Z,3.00
2022-11-26T11:52:50.589Z,2.30
2022-11-26T11:55:37.540Z,2.50
2022-11-26T11:58:10.183Z,2.87
2022-11-26T12:00:57.359Z,3.30
2022-11-26T12:03:53.121Z,2.50
2022-11-26T12:06:37.072Z,2.70
2022-11-26T12:09:20.957Z,2.00
2022-11-26T12:12:12.888Z,3.07
2022-11-26T12:14:43.587Z,2.53
2022-11-26T12:17:16.022Z,2.70
2022-11-26T12:20:19.647Z,1.90
2022-11-26T12:23:24.343Z,1.57
2022-11-26T12:26:16.193Z,1.37
2022-11-26T12:28:55.806Z,1.60
2022-11-26T12:31:30.015Z,1.53
2022-11-26T12:34:13.209Z,1.30
2022-11-26T12:36:59.772Z,2.23
2022-11-26T12:39:43.206Z,1.70
2022-11-26T12:42:31.201Z,2.73
2022-11-26T12:45:18.181Z,10.23
2022-11-26T12:47:55.850Z,4.57
2022-11-26T12:50:47.252Z,3.80
2022-11-26T12:53:38.993Z,4.20
2022-11-26T12:56:27.312Z,3.07
2022-11-26T12:59:36.704Z,2.37
2022-11-26T13:02:32.965Z,2.70
2022-11-26T13:05:02.087Z,9.30
2022-11-26T13:07:53.313Z,5.20
2022-11-26T13:10:35.804Z,2.93
2022-11-26T13:13:09.781Z,2.00
2022-11-26T13:15:55.825Z,2.47
2022-11-26T13:19:06.888Z,2.03
2022-11-26T13:21:52.054Z,10.80
2022-11-26T13:24:45.586Z,12.63
2022-11-26T13:27:40.742Z,3.73
2022-11-26T13:30:46.291Z,2.10
2022-11-26T13:33:46.688Z,1.63
2022-11-26T13:36:57.392Z,1.40
2022-11-26T13:39:47.816Z,1.17
2022-11-26T13:42:17.163Z,1.60
2022-11-26T13:45:25.203Z,1.00
2022-11-26T13:48:18.964Z,1.00
2022-11-26T13:50:54.048Z,1.43
2022-11-26T13:53:45.732Z,1.13
2022-11-26T13:56:16.966Z,1.47
2022-11-26T13:58:51.847Z,1.40
2022-11-26T14:01:41.523Z,1.43
2022-11-26T14:04:12.068Z,1.20
2022-11-26T14:07:05.816Z,1.17
2022-11-26T14:09:40.685Z,1.20
2022-11-26T14:12:11.633Z,1.03
2022-11-26T14:14:41.893Z,1.30
2022-11-26T14:17:12.941Z,1.50
2022-11-26T14:19:42.999Z,1.83
2022-11-26T14:22:24.149Z,2.23
2022-11-26T14:25:10.733Z,1.70
2022-11-26T14:28:06.627Z,3.70
2022-11-26T14:30:35.993Z,5.37
2022-11-26T14:33:24.621Z,8.33
2022-11-26T14:35:57.354Z,5.60
2022-11-26T14:38:36.128Z,5.37
2022-11-26T14:41:04.767Z,3.77
2022-11-26T14:43:33.170Z,2.73
2022-11-26T14:46:13.454Z,2.97
2022-11-26T14:48:48.263Z,4.40
2022-11-26T14:51:26.182Z,5.20
2022-11-26T14:53:55.023Z,4.17
2022-11-26T14:56:24.125Z,4.20
2022-11-26T14:59:00.561Z,3.37
2022-11-26T15:01:29.573Z,5.77
2022-11-26T15:04:03.320Z,38.10
2022-11-26T15:06:39.686Z,7.70
2022-11-26T15:09:18.474Z,3.83
2022-11-26T15:12:02.100Z,4.27
2022-11-26T15:14:42.400Z,15.27
2022-11-26T15:17:18.246Z,15.23
2022-11-26T15:19:47.089Z,8.03
2022-11-26T15:22:35.854Z,5.63
2022-11-26T15:25:25.753Z,5.37
2022-11-26T15:28:04.281Z,3.73
2022-11-26T15:30:36.342Z,5.83
2022-11-26T15:33:14.717Z,4.80
2022-11-26T15:35:45.245Z,5.93
2022-11-26T15:38:16.457Z,12.90
2022-11-26T15:40:52.450Z,3.10
2022-11-26T15:43:31.891Z,5.73
2022-11-26T15:46:37.444Z,4.50
2022-11-26T15:49:07.882Z,5.10
2022-11-26T15:51:44.299Z,6.70
2022-11-26T15:54:21.234Z,8.33
2022-11-26T15:56:56.406Z,8.93
2022-11-26T15:59:26.525Z,8.77
2022-11-26T16:01:55.149Z,9.53
2022-11-26T16:05:04.067Z,9.07
2022-11-26T16:07:33.581Z,7.63
2022-11-26T16:10:17.600Z,7.50
2022-11-26T16:13:16.759Z,5.80
2022-11-26T16:16:07.117Z,5.83
2022-11-26T16:18:50.379Z,4.73
2022-11-26T16:21:28.728Z,3.73
2022-11-26T16:24:07.849Z,2.90
2022-11-26T16:27:02.188Z,3.30
2022-11-26T16:29:33.190Z,3.47
2022-11-26T16:32:01.839Z,3.03
2022-11-26T16:34:30.312Z,3.37
2022-11-26T16:37:16.007Z,2.53
2022-11-26T16:39:44.489Z,3.40
2022-11-26T16:42:24.079Z,5.73
2022-11-26T16:44:53.559Z,9.20
2022-11-26T16:47:26.621Z,9.50
2022-11-26T16:49:56.100Z,9.30
2022-11-26T16:52:28.153Z,10.20
2022-11-26T16:55:03.358Z,9.17
2022-11-26T16:57:42.024Z,9.23
2022-11-26T17:00:21.368Z,6.83
2022-11-26T17:03:21.073Z,5.37
2022-11-26T17:06:02.500Z,4.57
2022-11-26T17:08:31.133Z,4.77
2022-11-26T17:11:02.435Z,3.73
2022-11-26T17:13:31.420Z,3.50
2022-11-26T17:16:02.194Z,3.47
2022-11-26T17:18:31.510Z,6.30
2022-11-26T17:21:01.936Z,6.90
2022-11-26T17:23:35.572Z,6.30
2022-11-26T17:26:18.777Z,4.40
2022-11-26T17:28:49.144Z,6.03
2022-11-26T17:31:19.032Z,4.37
2022-11-26T17:33:48.921Z,3.30
2022-11-26T17:36:20.179Z,3.23
2022-11-26T17:38:48.875Z,3.20
2022-11-26T17:41:17.394Z,3.37
2022-11-26T17:43:48.454Z,3.93
2022-11-26T17:46:23.221Z,3.80
2022-11-26T17:48:56.887Z,3.23
2022-11-26T17:51:31.953Z,3.00
2022-11-26T17:54:02.364Z,3.00
2022-11-26T17:56:30.860Z,2.63
2022-11-26T17:59:02.401Z,2.80
2022-11-26T18:01:30.982Z,2.57
2022-11-26T18:04:02.094Z,4.33
2022-11-26T18:07:11.903Z,4.60
2022-11-26T18:09:42.993Z,3.80
2022-11-26T18:12:25.466Z,4.67
2022-11-26T18:14:55.112Z,5.23
2022-11-26T18:17:25.622Z,5.97
2022-11-26T18:19:58.097Z,6.20
2022-11-26T18:22:27.210Z,6.23
2022-11-26T18:24:58.360Z,5.83
2022-11-26T18:27:30.403Z,5.87
2022-11-26T18:29:59.705Z,7.50
2022-11-26T18:32:28.785Z,7.27
2022-11-26T18:34:58.005Z,7.10
2022-11-26T18:37:29.985Z,6.70
2022-11-26T18:40:00.243Z,5.37
2022-11-26T18:42:37.031Z,5.70
2022-11-26T18:45:08.229Z,6.87
2022-11-26T18:47:39.758Z,6.07
2022-11-26T18:50:08.645Z,5.10
2022-11-26T18:52:39.172Z,6.17
2022-11-26T18:55:10.262Z,4.83
2022-11-26T18:57:40.325Z,4.87
2022-11-26T19:00:09.428Z,4.93
2022-11-26T19:02:40.297Z,5.63
2022-11-26T19:05:08.852Z,5.33
2022-11-26T19:07:42.655Z,5.80
2022-11-26T19:10:12.781Z,5.67
2022-11-26T19:12:42.623Z,5.50
2022-11-26T19:15:11.999Z,6.83
2022-11-26T19:17:40.538Z,5.53
2022-11-26T19:20:10.318Z,5.43
2022-11-26T19:22:41.359Z,5.67
2022-11-26T19:25:09.906Z,5.67
2022-11-26T19:27:40.151Z,6.90
2022-11-26T19:30:09.402Z,6.93
2022-11-26T19:32:40.686Z,7.17
2022-11-26T19:35:11.644Z,6.20
2022-11-26T19:37:43.047Z,6.40
2022-11-26T19:40:11.823Z,5.87
2022-11-26T19:42:41.228Z,5.40
2022-11-26T19:45:13.024Z,5.60
2022-11-26T19:47:42.832Z,5.63
2022-11-26T19:50:12.379Z,5.87
2022-11-26T19:52:49.137Z,6.30
2022-11-26T19:55:18.061Z,6.33
2022-11-26T19:57:46.373Z,5.83
2022-11-26T20:00:15.333Z,4.90
2022-11-26T20:02:45.121Z,5.37
2022-11-26T20:05:14.391Z,5.93
2022-11-26T20:07:45.701Z,6.67
2022-11-26T20:10:15.821Z,10.17
2022-11-26T20:12:45.413Z,12.43
2022-11-26T20:15:14.175Z,9.97
2022-11-26T20:17:42.725Z,9.80
2022-11-26T20:20:12.087Z,10.10
2022-11-26T20:22:40.477Z,12.20
2022-11-26T20:25:12.853Z,10.20
2022-11-26T20:27:44.111Z,10.60
2022-11-26T20:30:12.890Z,9.33
2022-11-26T20:32:42.757Z,6.27
2022-11-26T20:35:12.941Z,6.07
2022-11-26T20:37:50.069Z,5.80
2022-11-26T20:40:21.029Z,6.10
2022-11-26T20:42:59.223Z,6.50
2022-11-26T20:45:32.422Z,5.53
2022-11-26T20:48:08.416Z,5.20
2022-11-26T20:50:40.427Z,5.90
2022-11-26T20:53:14.240Z,6.77
2022-11-26T20:55:57.054Z,6.00
2022-11-26T20:58:25.853Z,6.30
2022-11-26T21:00:57.774Z,6.23
2022-11-26T21:03:26.820Z,7.03
2022-11-26T21:05:55.438Z,9.57
2022-11-26T21:08:23.820Z,8.77
2022-11-26T21:10:52.182Z,8.20
2022-11-26T21:13:33.427Z,6.90
2022-11-26T21:16:23.723Z,5.53
2022-11-26T21:18:58.581Z,4.27
2022-11-26T21:21:33.247Z,3.80
2022-11-26T21:24:06.442Z,4.13
2022-11-26T21:26:37.475Z,4.17
2022-11-26T21:29:13.140Z,2.97
2022-11-26T21:31:43.805Z,2.87
2022-11-26T21:34:18.266Z,3.27
2022-11-26T21:36:49.077Z,3.03
2022-11-26T21:39:17.466Z,2.67
2022-11-26T21:41:51.384Z,2.30
2022-11-26T21:44:27.480Z,3.40
2022-11-26T21:47:00.067Z,2.30
2022-11-26T21:49:33.869Z,1.60
2022-11-26T21:52:02.322Z,1.87
2022-11-26T21:54:36.762Z,1.77
2022-11-26T21:57:05.314Z,2.27
2022-11-26T21:59:41.877Z,1.63
2022-11-26T22:02:13.687Z,1.53
2022-11-26T22:04:45.114Z,2.20
2022-11-26T22:07:18.662Z,2.70
2022-11-26T22:09:52.513Z,2.47
2022-11-26T22:12:21.014Z,1.70
2022-11-26T22:14:49.322Z,2.20
2022-11-26T22:17:17.785Z,2.53
2022-11-26T22:19:46.303Z,2.53
2022-11-26T22:22:14.646Z,2.33
2022-11-26T22:24:42.940Z,2.13
2022-11-26T22:27:11.988Z,3.23
2022-11-26T22:29:40.473Z,3.63
2022-11-26T22:32:09.199Z,3.27
2022-11-26T22:34:37.672Z,3.40
2022-11-26T22:37:07.552Z,2.60
2022-11-26T22:39:35.926Z,4.73
2022-11-26T22:42:04.437Z,5.90
2022-11-26T22:44:34.327Z,6.23
2022-11-26T22:47:03.248Z,6.33
2022-11-26T22:49:31.625Z,7.50
2022-11-26T22:52:00.316Z,8.23
2022-11-26T22:54:28.740Z,9.00
2022-11-26T22:56:57.150Z,7.57
2022-11-26T22:59:27.789Z,6.27
2022-11-26T23:01:57.160Z,6.07
2022-11-26T23:04:25.452Z,5.13
2022-11-26T23:06:53.857Z,5.73
2022-11-26T23:09:22.262Z,5.63
2022-11-26T23:11:51.701Z,7.00
2022-11-26T23:14:19.997Z,6.30
2022-11-26T23:16:48.503Z,10.67
2022-11-26T23:19:17.055Z,8.97
2022-11-26T23:21:47.088Z,5.77
2022-11-26T23:24:15.810Z,5.70
2022-11-26T23:26:44.310Z,5.70
2022-11-26T23:29:12.740Z,5.13
2022-11-26T23:31:43.100Z,4.53
2022-11-26T23:34:12.469Z,3.80
2022-11-26T23:36:40.982Z,4.93
2022-11-26T23:39:10.749Z,4.17
2022-11-26T23:41:39.100Z,2.60
2022-11-26T23:44:07.505Z,3.73
2022-11-26T23:46:35.909Z,4.17
2022-11-26T23:49:04.367Z,3.47
2022-11-26T23:51:32.882Z,3.57
2022-11-26T23:54:01.206Z,4.37
2022-11-26T23:56:31.283Z,3.77
2022-11-26T23:59:02.403Z,6.00
